createdAt,value
2019-03-26T00:00:08.294Z,3.93
2019-03-26T00:02:37.221Z,3.90
2019-03-26T00:05:07.775Z,3.90
2019-03-26T00:07:36.747Z,4.47
2019-03-26T00:10:05.842Z,3.97
2019-03-26T00:12:34.811Z,3.97
2019-03-26T00:15:04.342Z,3.23
2019-03-26T00:17:33.332Z,3.60
2019-03-26T00:20:02.320Z,3.60
2019-03-26T00:22:31.246Z,3.27
2019-03-26T00:25:00.478Z,3.67
2019-03-26T00:27:31.074Z,3.20
2019-03-26T00:30:00.339Z,3.50
2019-03-26T00:32:29.646Z,3.33
2019-03-26T00:34:58.603Z,3.40
2019-03-26T00:37:27.566Z,3.33
2019-03-26T00:39:59.277Z,3.00
2019-03-26T00:42:28.334Z,3.00
2019-03-26T00:44:57.299Z,3.43
2019-03-26T00:47:26.291Z,3.70
2019-03-26T00:49:55.214Z,3.63
2019-03-26T00:52:24.170Z,3.30
2019-03-26T00:54:53.149Z,2.53
2019-03-26T00:57:22.102Z,2.70
2019-03-26T00:59:51.053Z,2.73
2019-03-26T01:02:20.012Z,2.73
2019-03-26T01:04:48.964Z,3.30
2019-03-26T01:07:17.926Z,3.83
2019-03-26T01:09:46.848Z,3.53
2019-03-26T01:12:15.818Z,4.40
2019-03-26T01:14:44.804Z,4.87
2019-03-26T01:17:13.753Z,2.90
2019-03-26T01:19:42.695Z,3.50
2019-03-26T01:22:11.680Z,3.47
2019-03-26T01:24:40.605Z,3.60
2019-03-26T01:27:09.634Z,3.17
2019-03-26T01:29:38.552Z,3.23
2019-03-26T01:32:08.466Z,3.20
2019-03-26T01:34:45.833Z,3.50
2019-03-26T01:37:08.198Z,3.03
2019-03-26T01:39:37.186Z,3.47
2019-03-26T01:42:07.974Z,2.97
2019-03-26T01:44:37.027Z,3.00
2019-03-26T01:47:06.074Z,3.77
2019-03-26T01:49:35.009Z,4.80
2019-03-26T01:52:04.005Z,3.27
2019-03-26T01:54:32.954Z,3.37
2019-03-26T01:57:01.880Z,3.40
2019-03-26T01:59:30.835Z,4.20
2019-03-26T02:01:59.757Z,3.93
2019-03-26T02:04:28.719Z,3.63
2019-03-26T02:06:57.633Z,3.07
2019-03-26T02:09:26.661Z,3.20
2019-03-26T02:11:55.577Z,3.60
2019-03-26T02:14:24.594Z,3.60
2019-03-26T02:16:53.582Z,4.20
2019-03-26T02:19:22.545Z,3.43
2019-03-26T02:21:51.523Z,3.57
2019-03-26T02:24:20.525Z,3.17
2019-03-26T02:26:49.459Z,3.37
2019-03-26T02:29:18.437Z,3.37
2019-03-26T02:31:47.360Z,3.10
2019-03-26T02:34:16.398Z,2.97
2019-03-26T02:36:45.334Z,3.13
2019-03-26T02:39:14.302Z,3.23
2019-03-26T02:41:43.246Z,3.77
2019-03-26T02:44:12.216Z,3.20
2019-03-26T02:46:41.156Z,3.17
2019-03-26T02:49:10.104Z,3.50
2019-03-26T02:51:39.176Z,3.20
2019-03-26T02:54:08.107Z,3.70
2019-03-26T02:56:37.067Z,3.13
2019-03-26T02:59:06.075Z,3.67
2019-03-26T03:01:35.040Z,3.70
2019-03-26T03:04:04.054Z,3.00
2019-03-26T03:06:33.102Z,3.40
2019-03-26T03:09:02.097Z,4.47
2019-03-26T03:11:31.055Z,3.90
2019-03-26T03:14:00.095Z,4.80
2019-03-26T03:16:29.098Z,6.13
2019-03-26T03:18:58.032Z,5.73
2019-03-26T03:21:27.022Z,5.63
2019-03-26T03:23:55.991Z,6.13
2019-03-26T03:26:25.000Z,7.30
2019-03-26T03:28:53.985Z,5.30
2019-03-26T03:31:22.943Z,5.20
2019-03-26T03:33:51.951Z,5.30
2019-03-26T03:36:20.943Z,8.27
2019-03-26T03:38:49.881Z,9.77
2019-03-26T03:41:18.838Z,6.67
2019-03-26T03:43:47.763Z,6.37
2019-03-26T03:46:16.736Z,4.67
2019-03-26T03:48:46.933Z,6.43
2019-03-26T03:51:19.083Z,4.80
2019-03-26T03:53:48.489Z,3.60
2019-03-26T03:56:19.860Z,4.27
2019-03-26T03:58:50.815Z,5.60
2019-03-26T04:01:19.809Z,4.87
2019-03-26T04:03:48.722Z,3.23
2019-03-26T04:06:17.724Z,5.13
2019-03-26T04:08:46.707Z,4.23
2019-03-26T04:11:15.651Z,3.53
2019-03-26T04:13:44.613Z,4.50
2019-03-26T04:16:13.560Z,5.03
2019-03-26T04:18:42.618Z,3.77
2019-03-26T04:21:11.541Z,3.57
2019-03-26T04:23:40.495Z,3.67
2019-03-26T04:26:09.428Z,4.60
2019-03-26T04:28:38.399Z,2.93
2019-03-26T04:31:07.442Z,5.50
2019-03-26T04:33:36.376Z,3.83
2019-03-26T04:36:05.361Z,2.30
2019-03-26T04:38:34.474Z,2.57
2019-03-26T04:41:03.398Z,3.07
2019-03-26T04:43:32.365Z,4.00
2019-03-26T04:46:01.297Z,3.17
2019-03-26T04:48:30.253Z,2.30
2019-03-26T04:50:59.267Z,2.57
2019-03-26T04:53:28.211Z,3.63
2019-03-26T04:55:57.240Z,5.10
2019-03-26T04:58:26.175Z,3.27
2019-03-26T05:00:55.173Z,3.00
2019-03-26T05:03:24.108Z,3.93
2019-03-26T05:05:53.236Z,5.00
2019-03-26T05:08:22.154Z,4.30
2019-03-26T05:10:51.106Z,5.90
2019-03-26T05:13:20.055Z,4.97
2019-03-26T05:15:49.084Z,5.30
2019-03-26T05:18:18.029Z,5.27
2019-03-26T05:20:46.995Z,6.40
2019-03-26T05:23:15.910Z,4.07
2019-03-26T05:25:44.894Z,4.17
2019-03-26T05:28:13.816Z,3.83
2019-03-26T05:30:42.827Z,2.97
2019-03-26T05:33:11.852Z,3.53
2019-03-26T05:35:40.834Z,3.87
2019-03-26T05:38:09.767Z,4.10
2019-03-26T05:40:38.711Z,3.80
2019-03-26T05:43:07.638Z,3.97
2019-03-26T05:45:36.673Z,2.60
2019-03-26T05:48:05.695Z,3.37
2019-03-26T05:50:34.809Z,2.47
2019-03-26T05:53:03.741Z,2.83
2019-03-26T05:55:32.658Z,3.07
2019-03-26T05:58:01.693Z,3.27
2019-03-26T06:00:30.711Z,3.13
2019-03-26T06:02:59.766Z,3.00
2019-03-26T06:05:28.722Z,3.47
2019-03-26T06:07:57.671Z,4.30
2019-03-26T06:10:26.608Z,3.27
2019-03-26T06:12:55.572Z,4.03
2019-03-26T06:15:24.559Z,3.50
2019-03-26T06:17:53.515Z,4.40
2019-03-26T06:20:22.444Z,4.13
2019-03-26T06:22:51.467Z,4.17
2019-03-26T06:25:20.425Z,4.53
2019-03-26T06:27:49.379Z,5.73
2019-03-26T06:30:18.440Z,7.07
2019-03-26T06:32:47.446Z,4.10
2019-03-26T06:35:16.450Z,3.80
2019-03-26T06:37:45.406Z,4.10
2019-03-26T06:40:14.845Z,4.23
2019-03-26T06:42:43.807Z,5.47
2019-03-26T06:45:12.877Z,5.00
2019-03-26T06:47:41.852Z,3.40
2019-03-26T06:50:11.823Z,6.97
2019-03-26T06:52:40.791Z,3.93
2019-03-26T06:55:10.064Z,3.73
2019-03-26T06:57:39.071Z,3.30
2019-03-26T07:00:11.173Z,3.03
2019-03-26T07:02:40.246Z,3.53
2019-03-26T07:05:09.777Z,3.67
2019-03-26T07:07:38.835Z,4.00
2019-03-26T07:10:09.171Z,3.43
2019-03-26T07:12:38.167Z,3.37
2019-03-26T07:15:09.032Z,3.50
2019-03-26T07:17:38.043Z,3.90
2019-03-26T07:20:08.146Z,5.40
2019-03-26T07:22:37.237Z,3.80
2019-03-26T07:25:09.036Z,2.80
2019-03-26T07:27:38.205Z,3.43
2019-03-26T07:30:09.010Z,3.37
2019-03-26T07:32:38.083Z,3.83
2019-03-26T07:35:08.044Z,3.20
2019-03-26T07:37:44.988Z,4.00
2019-03-26T07:40:08.277Z,4.00
2019-03-26T07:42:37.282Z,4.87
2019-03-26T07:45:07.399Z,3.30
2019-03-26T07:47:36.502Z,3.20
2019-03-26T07:50:07.429Z,3.93
2019-03-26T07:52:36.362Z,3.03
2019-03-26T07:55:07.582Z,3.90
2019-03-26T07:57:36.678Z,3.03
2019-03-26T08:00:10.796Z,3.50
2019-03-26T08:02:39.829Z,3.20
2019-03-26T08:05:09.123Z,2.87
2019-03-26T08:07:38.267Z,2.57
2019-03-26T08:10:08.240Z,4.30
2019-03-26T08:12:37.267Z,3.33
2019-03-26T08:15:08.143Z,3.83
2019-03-26T08:17:37.294Z,3.40
2019-03-26T08:20:07.589Z,3.37
2019-03-26T08:22:36.637Z,2.87
2019-03-26T08:25:07.708Z,3.77
2019-03-26T08:27:36.685Z,4.20
2019-03-26T08:30:07.378Z,3.93
2019-03-26T08:32:37.287Z,2.60
2019-03-26T08:35:06.480Z,2.67
2019-03-26T08:37:35.406Z,2.93
2019-03-26T08:40:07.430Z,3.43
2019-03-26T08:42:36.462Z,2.80
2019-03-26T08:45:09.231Z,2.43
2019-03-26T08:47:38.215Z,2.37
2019-03-26T08:50:07.688Z,2.07
2019-03-26T08:52:36.781Z,3.30
2019-03-26T08:55:08.329Z,2.23
2019-03-26T08:57:37.421Z,2.50
2019-03-26T09:00:09.130Z,2.60
2019-03-26T09:02:38.138Z,2.30
2019-03-26T09:05:07.603Z,2.63
2019-03-26T09:07:36.549Z,2.83
2019-03-26T09:10:10.695Z,2.60
2019-03-26T09:12:39.922Z,2.60
2019-03-26T09:15:14.387Z,2.47
2019-03-26T09:17:44.661Z,2.17
2019-03-26T09:20:14.561Z,2.40
2019-03-26T09:22:43.486Z,2.80
2019-03-26T09:25:13.482Z,2.23
2019-03-26T09:27:42.429Z,2.70
2019-03-26T09:30:12.718Z,1.73
2019-03-26T09:32:41.729Z,2.20
2019-03-26T09:35:11.524Z,2.30
2019-03-26T09:37:40.448Z,2.20
2019-03-26T09:40:10.360Z,2.70
2019-03-26T09:42:39.363Z,2.53
2019-03-26T09:45:12.636Z,2.00
2019-03-26T09:47:41.579Z,3.00
2019-03-26T09:50:11.804Z,2.50
2019-03-26T09:52:40.797Z,2.33
2019-03-26T09:55:10.595Z,2.47
2019-03-26T09:57:39.594Z,2.57
2019-03-26T10:00:12.515Z,2.60
2019-03-26T10:02:43.316Z,2.60
2019-03-26T10:05:12.559Z,2.73
2019-03-26T10:07:41.570Z,2.60
2019-03-26T10:10:11.860Z,2.37
2019-03-26T10:12:40.789Z,2.67
2019-03-26T10:15:09.964Z,2.53
2019-03-26T10:17:38.904Z,3.70
2019-03-26T10:20:08.596Z,3.40
2019-03-26T10:22:38.208Z,2.87
2019-03-26T10:25:11.008Z,2.17
2019-03-26T10:27:39.139Z,2.50
2019-03-26T10:30:10.677Z,2.53
2019-03-26T10:32:40.084Z,2.87
2019-03-26T10:35:09.750Z,2.10
2019-03-26T10:37:38.777Z,3.17
2019-03-26T10:40:08.268Z,2.33
2019-03-26T10:42:37.255Z,2.93
2019-03-26T10:45:07.615Z,2.30
2019-03-26T10:47:36.716Z,2.70
2019-03-26T10:50:07.247Z,2.70
2019-03-26T10:52:36.198Z,1.90
2019-03-26T10:55:06.670Z,2.30
2019-03-26T10:57:35.789Z,2.40
2019-03-26T11:00:06.837Z,2.30
2019-03-26T11:02:35.793Z,2.40
2019-03-26T11:05:06.482Z,2.23
2019-03-26T11:07:35.450Z,3.00
2019-03-26T11:10:08.767Z,2.30
2019-03-26T11:12:37.866Z,2.50
2019-03-26T11:15:12.222Z,2.60
2019-03-26T11:17:41.167Z,2.50
2019-03-26T11:20:10.926Z,2.50
2019-03-26T11:22:40.004Z,2.67
2019-03-26T11:25:12.241Z,2.93
2019-03-26T11:27:40.943Z,2.60
2019-03-26T11:30:10.309Z,1.93
2019-03-26T11:32:39.314Z,3.40
2019-03-26T11:35:09.411Z,3.03
2019-03-26T11:37:39.318Z,2.63
2019-03-26T11:40:08.890Z,3.00
2019-03-26T11:42:37.881Z,3.10
2019-03-26T11:45:09.569Z,2.77
2019-03-26T11:47:39.669Z,3.13
2019-03-26T11:50:09.795Z,3.83
2019-03-26T11:52:39.671Z,3.37
2019-03-26T11:55:10.372Z,3.67
2019-03-26T11:57:39.509Z,3.33
2019-03-26T12:00:11.603Z,2.87
2019-03-26T12:02:40.537Z,3.50
2019-03-26T12:05:10.448Z,3.40
2019-03-26T12:07:39.464Z,3.23
2019-03-26T12:10:09.460Z,4.10
2019-03-26T12:12:38.532Z,3.93
2019-03-26T12:15:09.537Z,3.80
2019-03-26T12:17:38.484Z,3.43
2019-03-26T12:20:08.176Z,3.57
2019-03-26T12:22:37.095Z,4.30
2019-03-26T12:25:07.001Z,4.17
2019-03-26T12:27:36.641Z,3.50
2019-03-26T12:30:09.308Z,3.63
2019-03-26T12:32:40.809Z,4.23
2019-03-26T12:35:09.913Z,3.63
2019-03-26T12:37:38.903Z,3.50
2019-03-26T12:40:08.011Z,3.80
2019-03-26T12:42:36.933Z,3.17
2019-03-26T12:45:07.369Z,4.63
2019-03-26T12:47:36.548Z,4.17
2019-03-26T12:50:08.567Z,3.17
2019-03-26T12:52:37.511Z,5.10
2019-03-26T12:55:06.858Z,8.17
2019-03-26T12:57:35.828Z,4.50
2019-03-26T13:00:07.059Z,5.97
2019-03-26T13:02:36.311Z,6.10
2019-03-26T13:05:06.961Z,4.33
2019-03-26T13:07:35.921Z,6.93
2019-03-26T13:10:13.369Z,5.90
2019-03-26T13:12:37.932Z,4.60
2019-03-26T13:15:07.695Z,4.03
2019-03-26T13:17:36.655Z,8.43
2019-03-26T13:20:07.127Z,7.67
2019-03-26T13:22:36.136Z,4.83
2019-03-26T13:25:06.428Z,3.80
2019-03-26T13:27:35.462Z,2.60
2019-03-26T13:30:06.824Z,3.00
2019-03-26T13:32:35.802Z,2.83
2019-03-26T13:35:08.120Z,2.43
2019-03-26T13:37:37.098Z,3.70
2019-03-26T13:40:06.585Z,4.20
2019-03-26T13:42:35.643Z,4.67
2019-03-26T13:45:07.111Z,3.63
2019-03-26T13:47:36.159Z,4.30
2019-03-26T13:50:08.712Z,5.30
2019-03-26T13:52:37.804Z,2.47
2019-03-26T13:55:08.684Z,2.50
2019-03-26T13:57:37.641Z,5.37
2019-03-26T14:00:08.214Z,3.30
2019-03-26T14:02:37.304Z,2.63
2019-03-26T14:05:25.959Z,2.57
2019-03-26T14:07:54.946Z,1.60
2019-03-26T14:10:24.119Z,2.40
2019-03-26T14:12:53.252Z,4.83
2019-03-26T14:15:22.277Z,2.20
2019-03-26T14:17:51.268Z,4.10
2019-03-26T14:20:20.466Z,4.20
2019-03-26T14:22:49.465Z,2.47
2019-03-26T14:25:18.507Z,2.40
2019-03-26T14:27:47.480Z,2.30
2019-03-26T14:30:19.516Z,2.43
2019-03-26T14:32:48.437Z,3.13
2019-03-26T14:35:17.405Z,3.80
2019-03-26T14:37:51.379Z,2.50
2019-03-26T14:40:17.070Z,3.10
2019-03-26T14:42:46.036Z,3.00
2019-03-26T14:45:15.060Z,3.10
2019-03-26T14:47:44.002Z,3.30
2019-03-26T14:50:13.390Z,3.10
2019-03-26T14:52:42.318Z,2.97
2019-03-26T14:55:11.416Z,2.67
2019-03-26T14:57:40.364Z,3.07
2019-03-26T15:00:10.106Z,2.90
2019-03-26T15:02:39.129Z,3.77
2019-03-26T15:05:09.129Z,6.30
2019-03-26T15:07:38.059Z,4.30
2019-03-26T15:10:07.720Z,3.20
2019-03-26T15:12:36.814Z,4.93
2019-03-26T15:15:06.187Z,6.37
2019-03-26T15:17:35.130Z,2.77
2019-03-26T15:20:06.209Z,4.67
2019-03-26T15:22:35.163Z,4.30
2019-03-26T15:25:05.756Z,2.60
2019-03-26T15:27:34.793Z,2.97
2019-03-26T15:30:08.191Z,3.13
2019-03-26T15:32:37.219Z,3.70
2019-03-26T15:35:06.887Z,3.13
2019-03-26T15:37:35.848Z,4.40
2019-03-26T15:40:07.019Z,4.40
2019-03-26T15:42:35.986Z,5.63
2019-03-26T15:45:07.931Z,4.33
2019-03-26T15:47:37.042Z,3.27
2019-03-26T15:50:10.558Z,4.33
2019-03-26T15:52:42.155Z,5.57
2019-03-26T15:55:10.558Z,6.80
2019-03-26T15:57:39.586Z,6.10
2019-03-26T16:00:08.850Z,6.50
2019-03-26T16:02:37.891Z,7.20
2019-03-26T16:05:08.066Z,4.90
2019-03-26T16:07:37.016Z,5.00
2019-03-26T16:10:08.354Z,4.03
2019-03-26T16:12:41.348Z,5.17
2019-03-26T16:15:08.096Z,3.50
2019-03-26T16:17:37.168Z,6.40
2019-03-26T16:20:07.363Z,4.40
2019-03-26T16:22:36.488Z,5.67
2019-03-26T16:25:05.947Z,9.63
2019-03-26T16:27:34.966Z,5.10
2019-03-26T16:30:05.776Z,8.03
2019-03-26T16:32:34.692Z,6.00
2019-03-26T16:35:04.797Z,5.63
2019-03-26T16:37:33.816Z,6.93
2019-03-26T16:40:03.047Z,5.90
2019-03-26T16:42:31.988Z,6.43
2019-03-26T16:45:00.960Z,6.80
2019-03-26T16:47:29.899Z,9.50
2019-03-26T16:49:58.871Z,6.43
2019-03-26T16:52:27.808Z,3.80
2019-03-26T16:54:56.827Z,3.20
2019-03-26T16:57:25.834Z,3.87
2019-03-26T16:59:54.788Z,3.47
2019-03-26T17:02:23.721Z,3.20
2019-03-26T17:04:52.688Z,5.53
2019-03-26T17:07:21.777Z,5.13
2019-03-26T17:09:50.739Z,4.93
2019-03-26T17:12:19.683Z,4.80
2019-03-26T17:14:48.633Z,5.60
2019-03-26T17:17:17.583Z,4.10
2019-03-26T17:19:46.523Z,4.10
2019-03-26T17:22:15.519Z,5.10
2019-03-26T17:24:44.577Z,3.77
2019-03-26T17:27:13.531Z,6.50
2019-03-26T17:29:42.571Z,5.07
2019-03-26T17:32:11.670Z,5.47
2019-03-26T17:34:40.695Z,4.97
2019-03-26T17:37:09.662Z,4.80
2019-03-26T17:39:38.605Z,5.53
2019-03-26T17:42:17.174Z,3.80
2019-03-26T17:44:38.227Z,6.40
2019-03-26T17:47:07.199Z,4.57
2019-03-26T17:49:36.143Z,4.13
2019-03-26T17:52:05.266Z,4.13
2019-03-26T17:54:34.253Z,3.30
2019-03-26T17:57:03.240Z,4.57
2019-03-26T17:59:32.158Z,3.03
2019-03-26T18:02:01.223Z,5.13
2019-03-26T18:04:31.698Z,5.43
2019-03-26T18:07:00.776Z,7.97
2019-03-26T18:09:29.758Z,4.87
2019-03-26T18:11:58.738Z,4.73
2019-03-26T18:14:27.693Z,4.93
2019-03-26T18:16:56.636Z,4.80
2019-03-26T18:19:25.645Z,5.00
2019-03-26T18:21:54.775Z,5.43
2019-03-26T18:24:23.737Z,7.57
2019-03-26T18:26:52.782Z,3.90
2019-03-26T18:29:21.800Z,2.93
2019-03-26T18:31:50.837Z,5.20
2019-03-26T18:34:19.852Z,7.67
2019-03-26T18:36:48.808Z,5.20
2019-03-26T18:39:17.778Z,4.40
2019-03-26T18:41:46.709Z,4.33
2019-03-26T18:44:15.759Z,4.80
2019-03-26T18:46:44.754Z,7.87
2019-03-26T18:49:13.726Z,4.10
2019-03-26T18:51:42.726Z,4.87
2019-03-26T18:54:11.794Z,4.33
2019-03-26T18:56:40.797Z,4.20
2019-03-26T18:59:09.791Z,8.40
2019-03-26T19:01:38.710Z,4.73
2019-03-26T19:04:07.662Z,4.87
2019-03-26T19:06:36.614Z,4.87
2019-03-26T19:09:06.371Z,4.53
2019-03-26T19:11:35.440Z,6.10
2019-03-26T19:14:04.479Z,5.30
2019-03-26T19:16:33.576Z,5.47
2019-03-26T19:19:02.574Z,5.20
2019-03-26T19:21:31.518Z,6.00
2019-03-26T19:24:04.369Z,5.53
2019-03-26T19:26:31.215Z,5.60
2019-03-26T19:29:00.185Z,6.40
2019-03-26T19:31:29.154Z,4.77
2019-03-26T19:33:58.815Z,5.37
2019-03-26T19:36:27.755Z,4.60
2019-03-26T19:38:59.467Z,5.67
2019-03-26T19:41:28.532Z,4.77
2019-03-26T19:43:57.513Z,5.60
2019-03-26T19:46:26.676Z,4.30
2019-03-26T19:48:55.682Z,4.73
2019-03-26T19:51:24.638Z,4.73
2019-03-26T19:53:53.572Z,4.50
2019-03-26T19:56:22.578Z,5.17
2019-03-26T19:58:51.575Z,5.17
2019-03-26T20:01:20.558Z,4.40
2019-03-26T20:03:49.567Z,5.07
2019-03-26T20:06:18.732Z,8.30
2019-03-26T20:08:47.811Z,8.33
2019-03-26T20:11:16.770Z,5.57
2019-03-26T20:13:45.715Z,4.90
2019-03-26T20:16:14.709Z,4.37
2019-03-26T20:18:43.644Z,4.07
2019-03-26T20:21:12.642Z,4.77
2019-03-26T20:23:41.583Z,4.30
2019-03-26T20:26:10.521Z,3.60
2019-03-26T20:28:39.438Z,3.93
2019-03-26T20:31:08.484Z,3.67
2019-03-26T20:33:37.528Z,4.40
2019-03-26T20:36:06.472Z,4.83
2019-03-26T20:38:35.431Z,4.33
2019-03-26T20:41:04.635Z,3.67
2019-03-26T20:43:37.521Z,4.23
2019-03-26T20:46:04.426Z,4.57
2019-03-26T20:48:33.370Z,6.00
2019-03-26T20:51:02.378Z,5.53
2019-03-26T20:53:31.384Z,3.63
2019-03-26T20:56:00.370Z,4.13
2019-03-26T20:58:29.459Z,4.70
2019-03-26T21:00:58.495Z,4.67
2019-03-26T21:03:27.463Z,4.97
2019-03-26T21:05:56.407Z,4.90
2019-03-26T21:08:25.393Z,3.70
2019-03-26T21:10:54.332Z,4.30
2019-03-26T21:13:23.411Z,4.43
2019-03-26T21:15:57.491Z,4.90
2019-03-26T21:18:23.095Z,5.47
2019-03-26T21:20:52.095Z,5.57
2019-03-26T21:23:21.055Z,4.83
2019-03-26T21:25:50.036Z,5.23
2019-03-26T21:28:18.968Z,5.03
2019-03-26T21:30:48.022Z,5.57
2019-03-26T21:33:17.058Z,5.50
2019-03-26T21:35:46.012Z,6.00
2019-03-26T21:38:15.120Z,5.70
2019-03-26T21:40:47.130Z,6.33
2019-03-26T21:43:14.691Z,6.50
2019-03-26T21:45:43.646Z,6.47
2019-03-26T21:48:12.597Z,6.20
2019-03-26T21:50:41.556Z,6.20
2019-03-26T21:53:10.590Z,5.77
2019-03-26T21:55:39.749Z,6.03
2019-03-26T21:58:08.760Z,5.57
2019-03-26T22:00:37.725Z,5.40
2019-03-26T22:03:06.659Z,5.77
2019-03-26T22:05:35.638Z,5.83
2019-03-26T22:08:04.725Z,5.90
2019-03-26T22:10:33.747Z,5.13
2019-03-26T22:13:02.675Z,6.03
2019-03-26T22:15:31.711Z,6.53
2019-03-26T22:18:00.624Z,6.60
2019-03-26T22:20:29.655Z,7.43
2019-03-26T22:22:58.669Z,6.97
2019-03-26T22:25:27.702Z,7.00
2019-03-26T22:27:56.680Z,7.00
2019-03-26T22:30:25.688Z,7.13
2019-03-26T22:32:54.669Z,7.20
2019-03-26T22:35:23.589Z,6.23
2019-03-26T22:37:52.547Z,6.87
2019-03-26T22:40:21.562Z,7.50
2019-03-26T22:42:50.610Z,7.40
2019-03-26T22:45:19.686Z,7.70
2019-03-26T22:47:48.635Z,6.30
2019-03-26T22:50:17.805Z,6.67
2019-03-26T22:52:47.228Z,7.17
2019-03-26T22:55:16.410Z,6.63
2019-03-26T22:57:45.375Z,6.50
2019-03-26T23:00:19.478Z,5.87
2019-03-26T23:02:48.435Z,6.50
2019-03-26T23:05:17.605Z,6.10
2019-03-26T23:07:46.706Z,6.00
2019-03-26T23:10:17.588Z,6.47
2019-03-26T23:12:46.683Z,5.97
2019-03-26T23:15:26.311Z,6.17
2019-03-26T23:17:55.335Z,6.10
2019-03-26T23:20:24.383Z,6.60
2019-03-26T23:22:53.447Z,6.73
2019-03-26T23:25:22.402Z,6.43
2019-03-26T23:27:51.342Z,7.03
2019-03-26T23:30:20.462Z,6.10
2019-03-26T23:32:49.434Z,6.57
2019-03-26T23:35:18.502Z,6.93
2019-03-26T23:37:51.826Z,7.50
2019-03-26T23:40:20.745Z,7.00
2019-03-26T23:42:49.711Z,7.57
2019-03-26T23:45:18.711Z,7.67
2019-03-26T23:47:47.659Z,6.10
2019-03-26T23:50:18.411Z,6.87
2019-03-26T23:52:48.278Z,6.47
2019-03-26T23:55:17.347Z,6.20
2019-03-26T23:57:46.269Z,6.43
